createdAt,value
2023-05-11T00:02:07.836Z,101247.38
2023-05-11T00:04:36.239Z,101259.16
2023-05-11T00:07:06.134Z,101260.66
2023-05-11T00:09:35.533Z,101263.94
2023-05-11T00:12:03.974Z,101255.38
2023-05-11T00:14:32.274Z,101266.28
2023-05-11T00:17:00.465Z,101262.19
2023-05-11T00:19:31.537Z,101260.84
2023-05-11T00:21:59.940Z,101260.84
2023-05-11T00:24:30.402Z,101266.59
2023-05-11T00:26:58.546Z,101275.53
2023-05-11T00:29:27.029Z,101266.78
2023-05-11T00:31:55.130Z,101272.41
2023-05-11T00:34:23.368Z,101277.38
2023-05-11T00:36:51.613Z,101276.72
2023-05-11T00:39:19.801Z,101282.31
2023-05-11T00:41:49.847Z,101277.53
2023-05-11T00:44:18.059Z,101275.03
2023-05-11T00:46:46.303Z,101278.88
2023-05-11T00:49:17.428Z,101287.78
2023-05-11T00:51:45.700Z,101280.50
2023-05-11T00:54:15.752Z,101285.78
2023-05-11T00:56:43.972Z,101286.94
2023-05-11T00:59:14.232Z,101275.22
2023-05-11T01:01:42.614Z,101280.19
2023-05-11T01:04:11.513Z,101279.56
2023-05-11T01:06:52.819Z,101289.13
2023-05-11T01:09:30.753Z,101295.56
2023-05-11T01:12:09.296Z,101297.38
2023-05-11T01:14:47.307Z,101290.97
2023-05-11T01:17:24.138Z,101292.28
2023-05-11T01:19:58.574Z,101295.75
2023-05-11T01:22:40.116Z,101294.09
2023-05-11T01:25:19.791Z,101301.22
2023-05-11T01:28:24.547Z,101291.78
2023-05-11T01:30:58.082Z,101291.28
2023-05-11T01:33:32.702Z,101300.03
2023-05-11T01:36:07.016Z,101309.16
2023-05-11T01:38:37.739Z,101310.59
2023-05-11T01:41:13.593Z,101307.31
2023-05-11T01:43:43.236Z,101298.38
2023-05-11T01:46:15.891Z,101300.38
2023-05-11T01:48:48.243Z,101299.72
2023-05-11T01:51:19.833Z,101303.53
2023-05-11T01:53:48.108Z,101293.47
2023-05-11T01:56:18.274Z,101295.09
2023-05-11T01:58:47.709Z,101293.78
2023-05-11T02:01:18.860Z,101303.84
2023-05-11T02:03:49.704Z,101304.53
2023-05-11T02:06:21.345Z,101312.63
2023-05-11T02:08:51.808Z,101312.44
2023-05-11T02:11:22.098Z,101316.91
2023-05-11T02:13:53.077Z,101314.25
2023-05-11T02:16:23.531Z,101314.25
2023-05-11T02:18:53.340Z,101310.97
2023-05-11T02:21:23.256Z,101309.97
2023-05-11T02:23:53.098Z,101310.97
2023-05-11T02:26:22.103Z,101311.97
2023-05-11T02:28:50.461Z,101310.28
2023-05-11T02:31:22.403Z,101313.28
2023-05-11T02:33:54.773Z,101304.19
2023-05-11T02:36:26.409Z,101313.94
2023-05-11T02:38:59.814Z,101308.66
2023-05-11T02:41:30.766Z,101315.94
2023-05-11T02:44:04.555Z,101319.22
2023-05-11T02:46:37.693Z,101317.56
2023-05-11T02:49:10.492Z,101318.72
2023-05-11T02:51:40.215Z,101314.13
2023-05-11T02:54:11.081Z,101328.81
2023-05-11T02:56:40.392Z,101321.56
2023-05-11T02:59:08.691Z,101313.44
2023-05-11T03:01:37.449Z,101318.56
2023-05-11T03:04:08.035Z,101326.16
2023-05-11T03:06:38.062Z,101321.53
2023-05-11T03:09:09.949Z,101327.81
2023-05-11T03:11:39.268Z,101324.84
2023-05-11T03:14:07.902Z,101328.50
2023-05-11T03:16:38.807Z,101331.97
2023-05-11T03:19:09.704Z,101331.78
2023-05-11T03:21:39.643Z,101323.69
2023-05-11T03:24:09.251Z,101326.31
2023-05-11T03:26:38.191Z,101330.13
2023-05-11T03:29:08.826Z,101326.66
2023-05-11T03:31:37.268Z,101330.97
2023-05-11T03:34:05.547Z,101331.59
2023-05-11T03:36:35.346Z,101325.19
2023-05-11T03:39:04.762Z,101332.28
2023-05-11T03:41:35.560Z,101331.47
2023-05-11T03:44:07.643Z,101334.25
2023-05-11T03:46:40.122Z,101328.81
2023-05-11T03:49:11.395Z,101332.09
2023-05-11T03:51:43.132Z,101326.50
2023-05-11T03:54:11.718Z,101324.34
2023-05-11T03:56:40.517Z,101323.69
2023-05-11T03:59:09.719Z,101318.25
2023-05-11T04:01:38.238Z,101316.06
2023-05-11T04:04:06.983Z,101317.56
2023-05-11T04:06:35.500Z,101314.94
2023-05-11T04:09:05.590Z,101315.09
2023-05-11T04:11:38.256Z,101326.16
2023-05-11T04:14:06.689Z,101328.31
2023-05-11T04:16:35.076Z,101333.78
2023-05-11T04:19:03.511Z,101332.09
2023-05-11T04:21:32.788Z,101331.78
2023-05-11T04:24:00.942Z,101329.94
2023-05-11T04:26:30.540Z,101325.50
2023-05-11T04:28:58.751Z,101332.44
2023-05-11T04:31:26.973Z,101328.97
2023-05-11T04:33:55.121Z,101325.16
2023-05-11T04:36:23.558Z,101324.34
2023-05-11T04:38:53.341Z,101319.88
2023-05-11T04:41:22.493Z,101326.50
2023-05-11T04:43:52.196Z,101328.47
2023-05-11T04:46:20.313Z,101330.13
2023-05-11T04:48:48.826Z,101330.94
2023-05-11T04:51:17.549Z,101334.91
2023-05-11T04:53:45.842Z,101335.72
2023-05-11T04:56:13.903Z,101337.41
2023-05-11T04:58:42.168Z,101337.06
2023-05-11T05:01:11.770Z,101342.03
2023-05-11T05:03:40.029Z,101338.69
2023-05-11T05:06:08.428Z,101349.13
2023-05-11T05:08:36.602Z,101347.50
2023-05-11T05:11:04.730Z,101352.59
2023-05-11T05:13:32.938Z,101349.78
2023-05-11T05:16:01.217Z,101352.09
2023-05-11T05:18:30.948Z,101347.00
2023-05-11T05:20:59.202Z,101351.94
2023-05-11T05:23:27.526Z,101349.47
2023-05-11T05:25:55.799Z,101354.91
2023-05-11T05:28:23.999Z,101354.25
2023-05-11T05:30:52.250Z,101356.06
2023-05-11T05:33:20.459Z,101352.44
2023-05-11T05:35:49.982Z,101355.41
2023-05-11T05:38:18.469Z,101356.22
2023-05-11T05:40:46.510Z,101346.97
2023-05-11T05:43:14.722Z,101351.44
2023-05-11T05:45:43.060Z,101342.34
2023-05-11T05:48:11.263Z,101344.00
2023-05-11T05:50:39.477Z,101346.66
2023-05-11T05:53:09.061Z,101343.00
2023-05-11T05:55:37.170Z,101347.13
2023-05-11T05:58:05.474Z,101347.31
2023-05-11T06:00:33.724Z,101347.97
2023-05-11T06:03:02.085Z,101349.78
2023-05-11T06:05:30.378Z,101349.09
2023-05-11T06:08:09.744Z,101353.75
2023-05-11T06:10:40.551Z,101353.06
2023-05-11T06:13:09.720Z,101350.28
2023-05-11T06:15:37.947Z,101355.19
2023-05-11T06:18:06.825Z,101352.22
2023-05-11T06:20:35.086Z,101356.19
2023-05-11T06:23:03.272Z,101347.91
2023-05-11T06:25:31.940Z,101344.28
2023-05-11T06:28:01.446Z,101351.91
2023-05-11T06:30:29.896Z,101354.88
2023-05-11T06:32:58.354Z,101354.88
2023-05-11T06:35:26.959Z,101359.47
2023-05-11T06:37:55.045Z,101362.13
2023-05-11T06:40:23.334Z,101362.97
2023-05-11T06:42:52.005Z,101355.47
2023-05-11T06:45:21.763Z,101358.13
2023-05-11T06:47:50.133Z,101358.59
2023-05-11T06:50:20.948Z,101369.31
2023-05-11T06:52:49.598Z,101370.13
2023-05-11T06:55:17.854Z,101366.31
2023-05-11T06:57:46.778Z,101358.38
2023-05-11T07:00:16.090Z,101363.69
2023-05-11T07:02:45.836Z,101368.31
2023-05-11T07:05:14.098Z,101362.72
2023-05-11T07:07:42.198Z,101365.34
2023-05-11T07:10:11.557Z,101372.03
2023-05-11T07:12:39.733Z,101372.97
2023-05-11T07:15:09.427Z,101372.81
2023-05-11T07:17:37.784Z,101377.94
2023-05-11T07:20:09.006Z,101380.59
2023-05-11T07:22:37.190Z,101377.84
2023-05-11T07:25:05.804Z,101382.03
2023-05-11T07:27:34.914Z,101377.72
2023-05-11T07:30:03.754Z,101375.59
2023-05-11T07:32:32.679Z,101388.31
2023-05-11T07:35:00.992Z,101384.84
2023-05-11T07:37:30.699Z,101382.22
2023-05-11T07:39:58.969Z,101384.34
2023-05-11T07:42:27.564Z,101380.19
2023-05-11T07:44:55.854Z,101392.38
2023-05-11T07:47:25.032Z,101388.72
2023-05-11T07:49:53.357Z,101389.03
2023-05-11T07:52:21.949Z,101387.41
2023-05-11T07:54:51.622Z,101385.16
2023-05-11T07:57:20.793Z,101390.44
2023-05-11T07:59:48.975Z,101395.59
2023-05-11T08:02:19.008Z,101395.59
2023-05-11T08:04:48.325Z,101400.22
2023-05-11T08:07:16.632Z,101400.53
2023-05-11T08:09:45.256Z,101399.16
2023-05-11T08:12:15.680Z,101401.00
2023-05-11T08:14:44.320Z,101404.13
2023-05-11T08:17:12.379Z,101399.75
2023-05-11T08:19:40.609Z,101413.78
2023-05-11T08:22:09.207Z,101409.28
2023-05-11T08:24:38.210Z,101400.97
2023-05-11T08:27:06.441Z,101413.34
2023-05-11T08:29:36.079Z,101411.06
2023-05-11T08:32:04.436Z,101406.22
2023-05-11T08:34:32.924Z,101416.22
2023-05-11T08:37:01.999Z,101398.09
2023-05-11T08:39:46.058Z,101399.66
2023-05-11T08:42:17.643Z,101396.16
2023-05-11T08:44:49.311Z,101395.78
2023-05-11T08:47:23.256Z,101395.06
2023-05-11T08:49:53.107Z,101400.13
2023-05-11T08:52:21.760Z,101398.63
2023-05-11T08:54:50.100Z,101397.25
2023-05-11T08:57:19.139Z,101408.63
2023-05-11T08:59:50.662Z,101403.38
2023-05-11T09:02:21.671Z,101400.59
2023-05-11T09:04:51.956Z,101397.03
2023-05-11T09:07:20.751Z,101403.16
2023-05-11T09:09:49.147Z,101396.16
2023-05-11T09:12:17.742Z,101401.88
2023-05-11T09:14:47.214Z,101400.09
2023-05-11T09:17:16.815Z,101400.34
2023-05-11T09:20:02.058Z,101408.66
2023-05-11T09:22:32.574Z,101405.41
2023-05-11T09:25:04.137Z,101415.47
2023-05-11T09:27:32.512Z,101402.66
2023-05-11T09:30:12.710Z,101411.94
2023-05-11T09:32:53.347Z,101412.94
2023-05-11T09:35:28.857Z,101410.34
2023-05-11T09:38:02.518Z,101401.66
2023-05-11T09:40:34.778Z,101404.84
2023-05-11T09:43:03.908Z,101402.34
2023-05-11T09:45:42.563Z,101411.38
2023-05-11T09:48:27.100Z,101416.16
2023-05-11T09:51:03.812Z,101404.41
2023-05-11T09:53:43.936Z,101414.31
2023-05-11T09:56:15.780Z,101415.88
2023-05-11T09:58:49.757Z,101405.41
2023-05-11T10:01:19.516Z,101403.28
2023-05-11T10:03:52.090Z,101397.34
2023-05-11T10:06:20.975Z,101405.44
2023-05-11T10:08:50.210Z,101388.34
2023-05-11T10:11:18.662Z,101401.09
2023-05-11T10:13:47.102Z,101404.69
2023-05-11T10:16:17.812Z,101404.13
2023-05-11T10:18:47.032Z,101408.31
2023-05-11T10:21:18.418Z,101409.38
2023-05-11T10:23:46.796Z,101411.19
2023-05-11T10:26:15.870Z,101413.03
2023-05-11T10:28:44.519Z,101420.53
2023-05-11T10:31:13.600Z,101413.84
2023-05-11T10:33:43.422Z,101413.38
2023-05-11T10:36:12.586Z,101414.06
2023-05-11T10:38:48.622Z,101409.59
2023-05-11T10:41:35.476Z,101401.75
2023-05-11T10:44:46.708Z,101397.84
2023-05-11T10:47:45.054Z,101396.13
2023-05-11T10:50:24.524Z,101395.25
2023-05-11T10:53:22.816Z,101395.19
2023-05-11T10:56:17.963Z,101393.03
2023-05-11T10:59:07.704Z,101403.66
2023-05-11T11:01:41.049Z,101390.75
2023-05-11T11:04:11.277Z,101388.03
2023-05-11T11:06:41.816Z,101396.31
2023-05-11T11:09:13.349Z,101394.63
2023-05-11T11:11:46.269Z,101392.31
2023-05-11T11:14:16.364Z,101399.50
2023-05-11T11:17:29.196Z,101409.59
2023-05-11T11:19:57.564Z,101412.31
2023-05-11T11:22:47.423Z,101415.56
2023-05-11T11:25:28.762Z,101422.91
2023-05-11T11:28:00.259Z,101422.72
2023-05-11T11:30:30.798Z,101427.78
2023-05-11T11:33:33.155Z,101427.53
2023-05-11T11:36:01.787Z,101431.72
2023-05-11T11:38:33.224Z,101420.91
2023-05-11T11:41:01.408Z,101423.03
2023-05-11T11:43:46.238Z,101424.94
2023-05-11T11:46:28.286Z,101435.28
2023-05-11T11:49:09.437Z,101444.97
2023-05-11T11:51:40.507Z,101442.22
2023-05-11T11:54:09.717Z,101447.69
2023-05-11T11:56:40.380Z,101455.81
2023-05-11T11:59:15.440Z,101453.91
2023-05-11T12:01:46.020Z,101452.41
2023-05-11T12:04:40.899Z,101449.28
2023-05-11T12:07:11.523Z,101449.47
2023-05-11T12:09:41.406Z,101456.56
2023-05-11T12:12:11.433Z,101457.47
2023-05-11T12:14:49.147Z,101455.38
2023-05-11T12:17:25.536Z,101464.56
2023-05-11T12:19:53.972Z,101456.13
2023-05-11T12:22:25.739Z,101460.81
2023-05-11T12:24:59.642Z,101462.69
2023-05-11T12:27:28.442Z,101459.56
2023-05-11T12:29:58.809Z,101464.97
2023-05-11T12:32:29.233Z,101463.59
2023-05-11T12:35:02.657Z,101461.78
2023-05-11T12:37:32.005Z,101465.19
2023-05-11T12:40:00.651Z,101464.06
2023-05-11T12:42:29.240Z,101462.50
2023-05-11T12:44:59.071Z,101473.22
2023-05-11T12:47:27.502Z,101480.31
2023-05-11T12:49:56.361Z,101478.66
2023-05-11T12:52:25.604Z,101489.81
2023-05-11T12:54:55.204Z,101492.53
2023-05-11T12:57:28.404Z,101504.59
2023-05-11T13:00:13.105Z,101503.06
2023-05-11T13:02:52.487Z,101495.88
2023-05-11T13:05:25.397Z,101496.94
2023-05-11T13:07:58.911Z,101505.66
2023-05-11T13:10:28.011Z,101505.97
2023-05-11T13:12:56.802Z,101514.91
2023-05-11T13:15:28.783Z,101512.44
2023-05-11T13:17:59.219Z,101514.91
2023-05-11T13:20:29.968Z,101506.28
2023-05-11T13:23:06.350Z,101503.41
2023-05-11T13:25:35.721Z,101514.78
2023-05-11T13:28:04.163Z,101507.78
2023-05-11T13:30:35.090Z,101504.25
2023-05-11T13:33:03.853Z,101507.78
2023-05-11T13:35:32.149Z,101505.81
2023-05-11T13:38:00.550Z,101503.91
2023-05-11T13:40:28.838Z,101513.13
2023-05-11T13:42:57.420Z,101506.69
2023-05-11T13:45:25.727Z,101505.06
2023-05-11T13:47:56.060Z,101497.88
2023-05-11T13:50:24.526Z,101491.38
2023-05-11T13:52:53.176Z,101499.63
2023-05-11T13:55:22.186Z,101494.06
2023-05-11T13:57:50.520Z,101493.16
2023-05-11T14:00:19.699Z,101499.50
2023-05-11T14:02:50.718Z,101510.97
2023-05-11T14:05:20.553Z,101510.97
2023-05-11T14:07:49.306Z,101512.31
2023-05-11T14:10:18.172Z,101524.00
2023-05-11T14:12:46.789Z,101524.75
2023-05-11T14:15:15.087Z,101522.44
2023-05-11T14:17:43.605Z,101520.69
2023-05-11T14:20:13.441Z,101527.03
2023-05-11T14:22:43.270Z,101534.63
2023-05-11T14:25:11.974Z,101525.84
2023-05-11T14:27:40.152Z,101527.66
2023-05-11T14:30:09.666Z,101527.75
2023-05-11T14:32:38.004Z,101523.97
2023-05-11T14:35:07.035Z,101531.41
2023-05-11T14:37:35.759Z,101530.47
2023-05-11T14:40:06.445Z,101536.59
2023-05-11T14:42:34.593Z,101541.13
2023-05-11T14:45:02.799Z,101542.13
2023-05-11T14:47:31.111Z,101544.47
2023-05-11T14:49:59.389Z,101553.38
2023-05-11T14:52:27.567Z,101545.25
2023-05-11T14:54:55.847Z,101554.78
2023-05-11T14:57:25.473Z,101561.75
2023-05-11T14:59:59.565Z,101563.38
2023-05-11T15:02:29.794Z,101565.66
2023-05-11T15:04:58.111Z,101567.94
2023-05-11T15:07:26.914Z,101574.03
2023-05-11T15:09:56.045Z,101586.53
2023-05-11T15:12:25.943Z,101590.53
2023-05-11T15:14:54.300Z,101592.59
2023-05-11T15:17:22.588Z,101593.41
2023-05-11T15:19:50.964Z,101598.25
2023-05-11T15:22:19.312Z,101603.78
2023-05-11T15:24:47.596Z,101610.50
2023-05-11T15:27:15.739Z,101605.28
2023-05-11T15:29:45.332Z,101602.06
2023-05-11T15:32:15.721Z,101606.09
2023-05-11T15:34:55.180Z,101611.41
2023-05-11T15:37:27.200Z,101613.34
2023-05-11T15:39:55.363Z,101619.50
2023-05-11T15:42:23.744Z,101624.34
2023-05-11T15:44:53.579Z,101632.25
2023-05-11T15:47:21.890Z,101638.28
2023-05-11T15:49:50.447Z,101634.28
2023-05-11T15:52:18.658Z,101634.47
2023-05-11T15:54:47.184Z,101635.22
2023-05-11T15:57:15.457Z,101637.41
2023-05-11T15:59:43.641Z,101634.63
2023-05-11T16:02:13.381Z,101642.78
2023-05-11T16:04:41.911Z,101653.88
2023-05-11T16:07:10.333Z,101654.69
2023-05-11T16:09:38.554Z,101652.59
2023-05-11T16:12:07.402Z,101658.91
2023-05-11T16:14:35.676Z,101660.44
2023-05-11T16:17:04.165Z,101660.81
2023-05-11T16:19:33.965Z,101667.75
2023-05-11T16:22:02.306Z,101673.31
2023-05-11T16:24:34.399Z,101677.56
2023-05-11T16:27:03.294Z,101678.94
2023-05-11T16:29:32.218Z,101685.25
2023-05-11T16:32:00.833Z,101691.38
2023-05-11T16:34:29.249Z,101705.47
2023-05-11T16:36:59.332Z,101713.50
2023-05-11T16:39:27.810Z,101719.81
2023-05-11T16:41:56.195Z,101727.13
2023-05-11T16:44:24.962Z,101726.66
2023-05-11T16:46:53.613Z,101737.97
2023-05-11T16:49:21.856Z,101737.00
2023-05-11T16:51:50.136Z,101745.97
2023-05-11T16:54:20.067Z,101748.78
2023-05-11T16:56:48.718Z,101760.56
2023-05-11T16:59:16.890Z,101763.41
2023-05-11T17:01:46.120Z,101770.69
2023-05-11T17:04:14.566Z,101779.03
2023-05-11T17:06:42.820Z,101784.34
2023-05-11T17:09:11.366Z,101781.75
2023-05-11T17:11:40.998Z,101790.03
2023-05-11T17:14:09.194Z,101790.38
2023-05-11T17:16:37.447Z,101783.72
2023-05-11T17:19:05.779Z,101783.91
2023-05-11T17:21:34.120Z,101789.88
2023-05-11T17:24:02.280Z,101791.88
2023-05-11T17:26:43.340Z,101801.16
2023-05-11T17:29:17.411Z,101811.59
2023-05-11T17:31:46.713Z,101815.22
2023-05-11T17:34:15.096Z,101821.88
2023-05-11T17:36:43.227Z,101817.38
2023-05-11T17:39:11.583Z,101826.84
2023-05-11T17:41:39.839Z,101831.66
2023-05-11T17:44:08.336Z,101837.28
2023-05-11T17:46:38.466Z,101842.41
2023-05-11T17:49:07.344Z,101834.13
2023-05-11T17:51:35.634Z,101840.41
2023-05-11T17:54:03.955Z,101843.91
2023-05-11T17:56:32.938Z,101847.53
2023-05-11T17:59:01.121Z,101848.22
2023-05-11T18:01:29.377Z,101858.13
2023-05-11T18:04:01.591Z,101858.97
2023-05-11T18:06:30.348Z,101865.59
2023-05-11T18:09:00.112Z,101872.72
2023-05-11T18:11:28.510Z,101883.66
2023-05-11T18:13:57.153Z,101886.13
2023-05-11T18:16:25.395Z,101898.38
2023-05-11T18:18:53.776Z,101892.25
2023-05-11T18:21:23.656Z,101906.69
2023-05-11T18:23:51.994Z,101910.97
2023-05-11T18:26:21.662Z,101925.22
2023-05-11T18:28:50.004Z,101923.22
2023-05-11T18:31:19.271Z,101935.16
2023-05-11T18:33:47.507Z,101936.84
2023-05-11T18:36:15.947Z,101942.09
2023-05-11T18:38:45.665Z,101938.09
2023-05-11T18:41:14.140Z,101948.53
2023-05-11T18:43:43.804Z,101959.31
2023-05-11T18:46:12.357Z,101958.13
2023-05-11T18:48:40.485Z,101960.56
2023-05-11T18:51:08.864Z,101973.16
2023-05-11T18:53:37.100Z,101974.16
2023-05-11T18:56:06.784Z,101971.34
2023-05-11T18:58:35.088Z,101980.28
2023-05-11T19:01:03.974Z,101983.06
2023-05-11T19:03:32.491Z,101988.38
2023-05-11T19:06:02.070Z,102001.31
2023-05-11T19:08:31.022Z,102009.72
2023-05-11T19:10:59.308Z,102013.53
2023-05-11T19:13:29.252Z,102021.50
2023-05-11T19:15:57.387Z,102037.84
2023-05-11T19:18:25.729Z,102035.50
2023-05-11T19:20:54.093Z,102044.44
2023-05-11T19:23:22.270Z,102041.81
2023-05-11T19:25:50.789Z,102047.56
2023-05-11T19:28:19.031Z,102048.56
2023-05-11T19:30:48.513Z,102055.81
2023-05-11T19:33:16.793Z,102052.81
2023-05-11T19:35:45.036Z,102064.38
2023-05-11T19:38:13.147Z,102064.84
2023-05-11T19:43:12.651Z,102079.09
2023-05-11T19:45:43.575Z,102083.56
2023-05-11T19:48:14.012Z,102087.47
2023-05-11T19:50:42.523Z,102092.78
2023-05-11T19:53:10.829Z,102101.69
2023-05-11T19:55:40.294Z,102106.59
2023-05-11T19:58:08.644Z,102112.22
2023-05-11T20:00:37.080Z,102114.34
2023-05-11T20:03:05.731Z,102115.16
2023-05-11T20:05:35.534Z,102109.03
2023-05-11T20:08:06.041Z,102112.22
2023-05-11T20:10:34.752Z,102119.03
2023-05-11T20:13:04.078Z,102122.50
2023-05-11T20:15:34.145Z,102118.88
2023-05-11T20:18:03.187Z,102131.97
2023-05-11T20:20:32.690Z,102132.78
2023-05-11T20:23:02.545Z,102135.72
2023-05-11T20:25:31.029Z,102133.25
2023-05-11T20:27:59.188Z,102129.94
2023-05-11T20:30:27.300Z,102135.34
2023-05-11T20:35:26.930Z,102147.22
2023-05-11T20:37:55.690Z,102146.56
2023-05-11T20:40:25.791Z,102144.59
2023-05-11T20:42:53.901Z,102149.22
2023-05-11T20:45:22.341Z,102159.25
2023-05-11T20:47:50.529Z,102154.28
2023-05-11T20:50:18.884Z,102158.72
2023-05-11T20:52:47.520Z,102164.97
2023-05-11T20:55:16.311Z,102159.00
2023-05-11T20:57:46.095Z,102165.28
2023-05-11T21:00:16.324Z,102175.19
2023-05-11T21:02:45.979Z,102165.75
2023-05-11T21:05:14.268Z,102175.50
2023-05-11T21:07:42.439Z,102174.78
2023-05-11T21:10:12.659Z,102185.53
2023-05-11T21:12:40.879Z,102186.66
2023-05-11T21:15:11.992Z,102191.28
2023-05-11T21:17:40.275Z,102198.66
2023-05-11T21:20:09.749Z,102196.19
2023-05-11T21:22:38.596Z,102196.31
2023-05-11T21:25:07.839Z,102193.66
2023-05-11T21:27:36.631Z,102195.91
2023-05-11T21:30:05.829Z,102199.56
2023-05-11T21:32:35.345Z,102197.06
2023-05-11T21:35:04.077Z,102204.31
2023-05-11T21:37:35.695Z,102207.94
2023-05-11T21:40:04.213Z,102211.56
2023-05-11T21:42:34.932Z,102215.47
2023-05-11T21:45:03.636Z,102228.03
2023-05-11T21:47:31.866Z,102233.31
2023-05-11T21:50:01.562Z,102235.25
2023-05-11T21:52:29.921Z,102240.00
2023-05-11T21:54:58.016Z,102245.59
2023-05-11T21:57:26.376Z,102241.41
2023-05-11T21:59:54.531Z,102247.69
2023-05-11T22:02:22.812Z,102247.03
2023-05-11T22:04:50.962Z,102252.59
2023-05-11T22:07:21.123Z,102257.03
2023-05-11T22:09:49.343Z,102258.16
2023-05-11T22:12:18.061Z,102260.13
2023-05-11T22:14:46.306Z,102267.50
2023-05-11T22:17:14.421Z,102266.66
2023-05-11T22:19:42.538Z,102274.03
2023-05-11T22:22:10.756Z,102273.22
2023-05-11T22:24:40.347Z,102275.19
2023-05-11T22:27:10.058Z,102280.59
2023-05-11T22:29:38.215Z,102278.25
2023-05-11T22:32:07.742Z,102288.81
2023-05-11T22:34:36.361Z,102287.84
2023-05-11T22:37:05.354Z,102299.81
2023-05-11T22:39:33.796Z,102296.75
2023-05-11T22:42:03.634Z,102299.25
2023-05-11T22:44:31.902Z,102298.56
2023-05-11T22:47:00.253Z,102300.78
2023-05-11T22:49:28.895Z,102301.34
2023-05-11T22:51:59.732Z,102308.28
2023-05-11T22:54:28.193Z,102312.47
2023-05-11T22:56:57.409Z,102316.38
2023-05-11T22:59:27.352Z,102325.13
2023-05-11T23:02:01.644Z,102326.13
2023-05-11T23:04:31.042Z,102326.38
2023-05-11T23:06:59.550Z,102328.34
2023-05-11T23:09:27.874Z,102326.69
2023-05-11T23:11:56.096Z,102332.78
2023-05-11T23:14:24.945Z,102335.44
2023-05-11T23:16:54.391Z,102332.50
2023-05-11T23:19:22.594Z,102334.03
2023-05-11T23:21:50.728Z,102336.69
2023-05-11T23:24:18.975Z,102339.19
2023-05-11T23:26:47.200Z,102340.16
2023-05-11T23:29:15.510Z,102331.66
2023-05-11T23:31:43.862Z,102335.56
2023-05-11T23:34:13.435Z,102347.00
2023-05-11T23:36:42.198Z,102345.44
2023-05-11T23:39:10.330Z,102345.59
2023-05-11T23:41:39.152Z,102357.97
2023-05-11T23:44:07.462Z,102358.94
2023-05-11T23:46:36.264Z,102359.22
2023-05-11T23:49:05.027Z,102373.38
2023-05-11T23:51:34.610Z,102371.72
2023-05-11T23:54:02.810Z,102359.06
2023-05-11T23:56:31.115Z,102374.78
2023-05-11T23:58:59.299Z,102361.31
